Tiempo atmosférico en la estación meteorológica de Priego de Cordoba, Córdoba (520 m.)



Fecha
DESCASC
Temp. máxima en grados centígrados (hora)
DESCASC
Temp. mínima en grados centígrados (hora)
DESCASC
Temp. media en grados centígrados
DESCASC
Racha de viento máxima en m/sg (hora)
DESCASC
Velocidad máxima media en intervalos de 10 minutos(hora)
DESCASC
Precipitaciones diarias en mm
DESCASC
Precipitaciones de 00:00 a 06:00 en mm
DESCASC
Precipitaciones de 06:00 a 12:00 en mm
DESCASC
Precipitaciones de 12:00 a 18:00 en mm
DESCASC
Precipitaciones de 18:00 a 24:00 en mm
DESCASC
23-06-2019 35 (18:10) 16.9 (07:20) 25.9 8.89 (19:40) 6.11 (19:40) 0 0 0 0 0
22-06-2019 34.7 (17:00) 13.2 (07:20) 24 8.89 (21:30) 6.39 (19:50) 0 0 0 0 0
21-06-2019 30.1 (18:50) 13.5 (07:20) 21.8 10.28 (16:10) 5.28 (17:10) 0 0 0 0 0
20-06-2019 28.7 (17:10) 14.2 (00:00) 21.5 11.11 (16:40) 7.22 (00:10) 0 0 0 0 0
19-06-2019 30.7 (17:20) 14.8 (00:00) 22.8 8.89 (23:59) 6.39 (23:59) 0 0 0 0 0
18-06-2019 29.7 (16:50) 13.5 (00:00) 21.6 12.22 (17:20) 7.5 (17:20) 0 0 0 0 0
17-06-2019 32.5 (18:00) 11.9 (00:00) 22.2 11.67 (19:30) 8.89 (19:30) 0 0 0 0 0
16-06-2019 31.9 (17:00) 10.6 (00:00) 21.3 10.83 (19:20) 8.61 (19:20) 0 0 0 0 0
15-06-2019 27.7 (18:40) 8.9 (00:00) 18.3 8.33 (00:50) 5.56 (00:50) 0 0 0 0 0
14-06-2019 23.9 (17:30) 15.9 (00:00) 19.9 12.5 (12:30) 8.33 (12:40) 0 0 0 0 0
13-06-2019 29.7 (17:00) 13 (00:00) 21.4 10 (22:00) 6.67 (19:10) 0 0 0 0 0
12-06-2019 30.3 (17:40) 12.6 (00:00) 21.4 9.17 (18:30) 6.11 (19:20) 0 0 0 0 0
11-06-2019 27.8 (19:10) 12.5 (00:00) 20.1 10 (18:50) 6.11 (12:50) 0 0 0 0 0
10-06-2019 27.4 (16:50) 12.1 (00:00) 19.8 11.67 (22:50) 8.33 (23:20) 0 0 0 0 0
09-06-2019 27.5 (16:40) 16.3 (00:00) 21.9 11.39 (16:00) 7.5 (22:30) 0 0 0 0 0
08-06-2019 30.7 (14:00) 9.3 (00:00) 20 14.44 (20:10) 9.17 (19:00) 0 0 0 0 0
07-06-2019 25 (19:40) 12.7 (00:00) 18.8 11.11 (00:10) 6.94 (00:30) 0 0 0 0 0
06-06-2019 27.8 (17:10) 10.7 (00:00) 19.2 12.22 (21:20) 8.33 (21:10) 0 0 0 0 0
05-06-2019 23 (18:00) 13.6 (00:00) 18.3 12.22 (00:10) 8.06 (00:10) 0 0 0 0 0
04-06-2019 31.4 (17:20) 13.2 (00:00) 22.3 12.78 (20:50) 8.61 (20:50) 0 0 0 0 0
03-06-2019 35.8 (17:10) 14.2 (00:00) 25 10 (19:50) 7.5 (19:40) 0 0 0 0 0
02-06-2019 34.8 (19:20) 13.1 (00:00) 23.9 10.28 (20:00) 7.5 (20:00) 0 0 0 0 0
01-06-2019 34.4 (18:00) 13.1 (00:00) 23.8 12.22 (20:10) 9.17 (18:20) 0 0 0 0 0
31-05-2019 33 (17:40) 15.7 (00:00) 24.3 10.56 (19:20) 8.06 (19:30) 0 0 0 0 0
30-05-2019 31.9 (18:50) 13.7 (00:00) 22.8 10.83 (20:10) 7.22 (19:40) 0 0 0 0 0
29-05-2019 30 (16:20) 17.3 (00:00) 23.6 11.11 (20:10) 6.94 (20:20) 0 0 0 0 0
28-05-2019 33.3 (18:40) 16.7 (00:00) 25 13.33 (00:10) 9.72 (00:10) 0 0 0 0 0
27-05-2019 32.4 (18:40) 12.4 (00:00) 22.4 11.94 (23:30) 8.06 (23:59) 0 0 0 0 0
26-05-2019 28 (19:40) 12.1 (00:00) 20.1 10.28 (16:50) 5.83 (14:00) 0 0 0 0 0

Gráficas

Temp. máximas Temp. mínimas Temp. medias Precipitaciones Rachas de viento máximas Velocidades máximas media en intervalos de 10 minutos

Datos horarios

Fecha y hora oficial Temperatura (ºC) Velocidad del viento (km/h) Dirección del viento Racha (km/h) Dirección de racha Precipitación (mm) Presión (hPa) Tendencia (hPa) Humedad (%)
2019-06-24 23:00:00 24 15 Sudoeste 23 Sudoeste 0 -- -- 47
2019-06-24 22:00:00 25.6 15 Sudoeste 23 Sudoeste 0 -- -- 44
2019-06-24 21:00:00 28.6 12 Sudoeste 33 Sudoeste 0 -- -- 39
2019-06-24 20:00:00 30.4 17 Sudoeste 27 Sudoeste 0 -- -- 33
2019-06-24 19:00:00 32.5 13 Sudoeste 27 Sudoeste 0 -- -- 30
2019-06-24 18:00:00 32.9 14 Sudoeste 28 Oeste 0 -- -- 29
2019-06-24 17:00:00 33.2 12 Sudoeste 24 Sudoeste 0 -- -- 30
2019-06-24 16:00:00 30.4 15 Norte 28 Nordeste 0 -- -- 38
2019-06-24 15:00:00 29.5 17 Norte 32 Norte 0 -- -- 40
2019-06-24 14:00:00 29.4 18 Nordeste 29 Norte 0 -- -- 41
2019-06-24 13:00:00 28.7 13 Nordeste 23 Norte 0 -- -- 42
2019-06-24 12:00:00 27.9 8 Nordeste 17 Nordeste 0 -- -- 44
2019-06-24 11:00:00 26.7 9 Nordeste 15 Nordeste 0 -- -- 48
2019-06-24 10:00:00 24.2 5 Norte 10 Norte 0 -- -- 57
2019-06-24 09:00:00 21.6 4 Oeste 7 Sudeste 0 -- -- 64
2019-06-24 08:00:00 18.3 3 Sudoeste 8 Sudoeste 0 -- -- 74
2019-06-24 07:00:00 18 3 Sudoeste 8 Sudoeste 0 -- -- 74
2019-06-24 06:00:00 19.1 3 Sudoeste 6 Nordeste 0 -- -- 71
2019-06-24 05:00:00 19.9 3 Sudeste 6 Sudeste 0 -- -- 71
2019-06-24 04:00:00 20.5 0 Calma 10 Sudoeste 0 -- -- 69
2019-06-24 03:00:00 21.4 9 Sur 18 Sudoeste 0 -- -- 66
2019-06-24 02:00:00 22.6 12 Sudoeste 27 Sudoeste 0 -- -- 64
2019-06-24 01:00:00 23.5 19 Sudoeste 27 Sudoeste 0 -- -- 61
2019-06-24 00:00:00 24.5 18 Sudoeste 26 Sudoeste 0 -- -- 55
2019-06-23 23:00:00 25.7 16 Sudoeste 23 Sudoeste 0 -- -- 46
2019-06-23 22:00:00 27.3 6 Sur 16 Sudoeste 0 -- -- 36
2019-06-23 21:00:00 29.8 8 Oeste 26 Oeste 0 -- -- 32
2019-06-23 20:00:00 31 19 Oeste 32 Sudoeste 0 -- -- 31
2019-06-23 19:00:00 33.4 18 Sudoeste 30 Sudoeste 0 -- -- 30
2019-06-23 18:00:00 34.8 14 Sudoeste 28 Sudoeste 0 -- -- 28
2019-06-23 17:00:00 33 13 Este 31 Norte 0 -- -- 30
2019-06-23 16:00:00 33.3 11 Norte 26 Norte 0 -- -- 29
2019-06-23 15:00:00 32.3 13 Norte 26 Norte 0 -- -- 30
2019-06-23 14:00:00 31 15 Norte 28 Norte 0 -- -- 32
2019-06-23 13:00:00 29.8 13 Nordeste 24 Norte 0 -- -- 35
2019-06-23 12:00:00 28.4 13 Nordeste 23 Nordeste 0 -- -- 38
2019-06-23 11:00:00 26.6 12 Nordeste 18 Norte 0 -- -- 45
2019-06-23 10:00:00 24.4 7 Nordeste 13 Norte 0 -- -- 51
2019-06-23 09:00:00 22.2 0 Calma 5 Sudoeste 0 -- -- 57
2019-06-23 08:00:00 18.2 0 Calma 8 Sudoeste 0 -- -- 68
2019-06-23 07:00:00 17.3 5 Sudoeste 12 Nordeste 0 -- -- 68
2019-06-23 06:00:00 18.4 7 Norte 9 Norte 0 -- -- 65
2019-06-23 05:00:00 19.4 4 Este 8 Nordeste 0 -- -- 62
2019-06-23 04:00:00 20.6 4 Sudoeste 15 Sur 0 -- -- 59
2019-06-23 03:00:00 21.5 12 Sudoeste 20 Sudoeste 0 -- -- 56
2019-06-23 02:00:00 21.9 15 Sur 22 Sudoeste 0 -- -- 56
2019-06-23 01:00:00 22.8 18 Sudoeste 28 Sudoeste 0 -- -- 51
2019-06-23 00:00:00 24 13 Sudoeste 23 Sudoeste 0 -- -- 48
2019-06-22 23:00:00 25.4 15 Sudoeste 26 Sudoeste 0 -- -- 44
2019-06-22 22:00:00 27 20 Sudoeste 32 Sudoeste 0 -- -- 39
2019-06-22 21:00:00 30.2 21 Sudoeste 32 Sudoeste 0 -- -- 28
2019-06-22 20:00:00 32.1 21 Sudoeste 32 Sudoeste 0 -- -- 28
2019-06-22 19:00:00 33.7 17 Sudoeste 31 Noroeste 0 -- -- 27
2019-06-22 18:00:00 34.4 11 Sudoeste 24 Sur 0 -- -- 26
2019-06-22 17:00:00 34.7 11 Sudoeste 21 Sudoeste 0 -- -- 23
2019-06-22 16:00:00 33.2 12 Oeste 26 Sudoeste 0 -- -- 24
2019-06-22 15:00:00 32.7 15 Sudoeste 30 Norte 0 -- -- 24
2019-06-22 14:00:00 30.7 16 Norte 28 Norte 0 -- -- 28
2019-06-22 13:00:00 30.5 10 Nordeste 22 Oeste 0 -- -- 27
2019-06-22 12:00:00 29.4 7 Este 18 Sur 0 -- -- 27
2019-06-22 11:00:00 27.5 7 Sudoeste 13 Sudoeste 0 -- -- 29
2019-06-22 10:00:00 23.8 7 Sudoeste 10 Oeste 0 -- -- 39
2019-06-22 09:00:00 18.6 8 Sudoeste 12 Sudoeste 0 -- -- 48
2019-06-22 08:00:00 14.5 10 Sudoeste 13 Sudoeste 0 -- -- 59
2019-06-22 07:00:00 13.5 11 Sudoeste 13 Sudoeste 0 -- -- 62
2019-06-22 06:00:00 13.9 8 Sudoeste 12 Sudoeste 0 -- -- 59
2019-06-22 05:00:00 14.8 9 Sudoeste 12 Sudoeste 0 -- -- 56
2019-06-22 04:00:00 15.6 10 Sudoeste 14 Sudoeste 0 -- -- 51
2019-06-22 03:00:00 16.8 9 Sudoeste 11 Sudoeste 0 -- -- 46
2019-06-22 02:00:00 19 0 Calma 4 Sur 0 -- -- 40
2019-06-22 01:00:00 19.3 5 Sudoeste 14 Sur 0 -- -- 39
2019-06-22 00:00:00 20.6 12 Sur 15 Sur 0 -- -- 36
2019-06-21 23:00:00 21.9 10 Sudoeste 15 Sudoeste 0 -- -- 35
2019-06-21 22:00:00 24.3 6 Sur 15 Sudoeste 0 -- -- 30
2019-06-21 21:00:00 28.2 13 Sudoeste 19 Sudoeste 0 -- -- 26
2019-06-21 20:00:00 29.6 6 Oeste 25 Noroeste 0 -- -- 24
2019-06-21 19:00:00 29.7 13 Noroeste 24 Noroeste 0 -- -- 26
2019-06-21 18:00:00 29.4 13 Noroeste 30 Norte 0 -- -- 27
2019-06-21 17:00:00 29 17 Norte 37 Norte 0 -- -- 31
2019-06-21 16:00:00 28.7 14 Norte 30 Norte 0 -- -- 34
2019-06-21 15:00:00 28.1 15 Nordeste 27 Norte 0 -- -- 38
2019-06-21 14:00:00 27.1 10 Nordeste 21 Norte 0 -- -- 39
2019-06-21 13:00:00 25.9 12 Norte 24 Nordeste 0 -- -- 40
2019-06-21 12:00:00 25.4 14 Nordeste 22 Nordeste 0 -- -- 42
2019-06-21 11:00:00 24.1 4 Este 14 Este 0 -- -- 45
2019-06-21 10:00:00 21.7 3 Este 8 Oeste 0 -- -- 52
2019-06-21 09:00:00 17.9 5 Sudoeste 7 Sudoeste 0 -- -- 64
2019-06-21 08:00:00 14.8 3 Sudoeste 6 Sudoeste 0 -- -- 73
2019-06-21 07:00:00 13.7 5 Sudoeste 9 Oeste 0 -- -- 74
2019-06-21 06:00:00 14.9 5 Sur 9 Sur 0 -- -- 72
2019-06-21 05:00:00 15.5 6 Sur 12 Sudoeste 0 -- -- 69
2019-06-21 04:00:00 16.4 8 Sudoeste 17 Sudoeste 0 -- -- 66
2019-06-21 03:00:00 17 10 Sudoeste 18 Sudoeste 0 -- -- 65
2019-06-21 02:00:00 17.5 10 Sudoeste 19 Sudoeste 0 -- -- 65
2019-06-21 01:00:00 18.5 8 Sudoeste 27 Sudoeste 0 -- -- 63
2019-06-21 00:00:00 19.5 17 Sudoeste 28 Sudoeste 0 -- -- 61
2019-06-20 23:00:00 20.5 13 Sudoeste 22 Sudoeste 0 -- -- 49
2019-06-20 22:00:00 21.8 9 Sudoeste 25 Sudoeste 0 -- -- 44
2019-06-20 21:00:00 24.8 18 Sudoeste 33 Oeste 0 -- -- 39
2019-06-20 20:00:00 25.9 22 Oeste 31 Oeste 0 -- -- 37
2019-06-20 19:00:00 27.6 21 Sudoeste 36 Sudoeste 0 -- -- 33
2019-06-20 18:00:00 28.1 23 Sudoeste 35 Sudoeste 0 -- -- 35
2019-06-20 17:00:00 28.4 24 Sudoeste 40 Sudoeste 0 -- -- 37
2019-06-20 16:00:00 28.3 23 Sudoeste 34 Sudoeste 0 -- -- 38
2019-06-20 15:00:00 27.9 17 Sudoeste 35 Sudoeste 0 -- -- 40
2019-06-20 14:00:00 28.1 16 Sudoeste 28 Sudoeste 0 -- -- 41
2019-06-20 13:00:00 26.6 6 Oeste 18 Sudoeste 0 -- -- 44
2019-06-20 12:00:00 24.5 6 Sudoeste 18 Oeste 0 -- -- 52
2019-06-20 11:00:00 23.1 5 Sudoeste 15 Sudoeste 0 -- -- 56
2019-06-20 10:00:00 20.3 3 Noroeste 10 Norte 0 -- -- 62
2019-06-20 09:00:00 18.1 4 Norte 6 Norte 0 -- -- 68
2019-06-20 08:00:00 15.7 2 Norte 6 Norte 0 -- -- 75
2019-06-20 07:00:00 14.7 3 Sudoeste 9 Sudoeste 0 -- -- 77
2019-06-20 06:00:00 15.3 8 Sudoeste 12 Sur 0 -- -- 74
2019-06-20 05:00:00 15.7 6 Sur 16 Sudoeste 0 -- -- 72
2019-06-20 04:00:00 16.3 9 Sudoeste 19 Sudoeste 0 -- -- 70
2019-06-20 03:00:00 17 13 Sudoeste 25 Sudoeste 0 -- -- 69
2019-06-20 02:00:00 18 17 Sudoeste 36 Sudoeste 0 -- -- 70
2019-06-20 01:00:00 19.2 21 Sudoeste 36 Sudoeste 0 -- -- 67
2019-06-20 00:00:00 20.8 23 Sudoeste 32 Sudoeste 0 -- -- 61
2019-06-19 23:00:00 21.5 12 Sudoeste 15 Sudoeste 0 -- -- 46
2019-06-19 22:00:00 23.4 8 Sudoeste 23 Sudoeste 0 -- -- 42
2019-06-19 21:00:00 26.9 17 Sudoeste 26 Sudoeste 0 -- -- 35
2019-06-19 20:00:00 28.4 18 Sudoeste 28 Sudoeste 0 -- -- 31
2019-06-19 19:00:00 29.5 20 Sudoeste 30 Sudoeste 0 -- -- 30
2019-06-19 18:00:00 29.9 19 Sudoeste 29 Oeste 0 -- -- 28
2019-06-19 17:00:00 30.6 11 Sudoeste 27 Norte 0 -- -- 29
2019-06-19 16:00:00 27.8 13 Norte -- -- -- -- -- 42
2019-06-19 15:00:00 -- -- -- -- -- -- -- -- --
2019-06-19 14:00:00 -- -- -- -- -- -- -- -- --
2019-06-19 13:00:00 -- -- -- -- -- -- -- -- --
2019-06-19 12:00:00 -- -- -- -- -- -- -- -- --
2019-06-19 11:00:00 -- -- -- -- -- -- -- -- --
2019-06-19 10:00:00 -- -- -- -- -- -- -- -- --
2019-06-19 09:00:00 -- -- -- -- -- -- -- -- --
2019-06-19 08:00:00 -- -- -- -- -- -- -- -- --
2019-06-19 07:00:00 -- -- -- -- -- -- -- -- --
2019-06-19 06:00:00 -- -- -- -- -- -- -- -- --
2019-06-19 05:00:00 -- -- -- -- -- -- -- -- --
2019-06-19 04:00:00 16.3 12 Sudoeste 17 Sudoeste 0 -- -- 81
2019-06-19 03:00:00 16.6 7 Sudoeste 13 Sudoeste 0 -- -- 78
2019-06-19 02:00:00 17.2 11 Sudoeste 18 Sudoeste 0 -- -- 75
2019-06-19 01:00:00 18.3 13 Sudoeste 26 Sudoeste 0 -- -- 71
2019-06-19 00:00:00 19.4 18 Sudoeste 26 Sudoeste 0 -- -- 64
2019-06-18 23:00:00 20.5 17 Sudoeste 26 Sudoeste 0 -- -- 58
2019-06-18 22:00:00 22.1 20 Sudoeste 29 Sudoeste 0 -- -- 47
2019-06-18 21:00:00 25.5 18 Sudoeste 32 Sudoeste 0 -- -- 37
2019-06-18 20:00:00 27.6 21 Sudoeste 36 Sudoeste 0 -- -- 32
2019-06-18 19:00:00 27.9 22 Oeste 37 Oeste 0 -- -- 31
2019-06-18 18:00:00 29.4 19 Oeste 44 Sudoeste 0 -- -- 31
2019-06-18 17:00:00 29.6 23 Sudoeste 37 Oeste 0 -- -- 32
2019-06-18 16:00:00 28.9 19 Oeste 32 Sudoeste 0 -- -- 33
2019-06-18 15:00:00 28.4 13 Noroeste 30 Sudoeste 0 -- -- 33
2019-06-18 14:00:00 27.9 5 Norte 24 Nordeste 0 -- -- 37
2019-06-18 13:00:00 26.3 15 Norte 23 Norte 0 -- -- 38
2019-06-18 12:00:00 24.8 14 Nordeste 24 Nordeste 0 -- -- 40
2019-06-18 11:00:00 23.5 6 Este 17 Nordeste 0 -- -- 46
2019-06-18 10:00:00 21.1 11 Nordeste 17 Nordeste 0 -- -- 53
2019-06-18 09:00:00 18.5 0 Calma 7 Sudoeste 0 -- -- 59
2019-06-18 08:00:00 14.6 4 Sur -- -- 0 -- -- 72
2019-06-18 07:00:00 13.7 0 Calma 9 Sudoeste 0 -- -- 76
2019-06-18 06:00:00 13.9 8 Sudoeste 11 Sudoeste 0 -- -- 73
2019-06-18 05:00:00 15.4 6 Sudoeste 8 Sudoeste 0 -- -- 69
2019-06-18 04:00:00 16.4 3 Sudoeste 9 Sudoeste 0 -- -- 66
2019-06-18 03:00:00 18.1 4 Sudoeste 9 Sudoeste 0 -- -- 60
2019-06-18 02:00:00 19.4 7 Sudoeste 11 Sur 0 -- -- 60
2019-06-18 01:00:00 20.5 9 Sur 13 Sudoeste 0 -- -- 55
2019-06-18 00:00:00 22.3 9 Sudoeste 21 Sudoeste 0 -- -- 51
2019-06-17 23:00:00 23.8 13 Sudoeste 22 Sur 0 -- -- 43
2019-06-17 22:00:00 25.4 13 Sudoeste 31 Sudoeste 0 -- -- 32
2019-06-17 21:00:00 28.5 21 Sudoeste 39 Sudoeste 0 -- -- 22
2019-06-17 20:00:00 30.5 23 Sudoeste 42 Sudoeste 0 -- -- 21
2019-06-17 19:00:00 31.7 24 Sudoeste 39 Sudoeste 0 -- -- 22
2019-06-17 18:00:00 32.5 19 Sudoeste 37 Sudoeste 0 -- -- 23
2019-06-17 17:00:00 31.8 23 Oeste 36 Sudoeste 0 -- -- 23
2019-06-17 16:00:00 31.6 22 Sudoeste 36 Oeste 0 -- -- 22
2019-06-17 15:00:00 31.1 13 Oeste 28 Sudoeste 0 -- -- 22
2019-06-17 14:00:00 30.8 10 Sur 27 Sudoeste 0 -- -- 23
2019-06-17 13:00:00 28.9 11 Sudoeste 23 Sur 0 -- -- 27
2019-06-17 12:00:00 27.3 5 Sudoeste 12 Noroeste 0 -- -- 31
2019-06-17 11:00:00 23.5 5 Norte 10 Nordeste 0 -- -- 39
2019-06-17 10:00:00 20.8 6 Norte 12 Norte 0 -- -- 44
2019-06-17 09:00:00 18.2 0 Calma 4 Sudoeste 0 -- -- 49
2019-06-17 08:00:00 13.2 5 Sudoeste 9 Sudoeste 0 -- -- 62
2019-06-17 07:00:00 12.4 5 Sudoeste 6 Sudoeste 0 -- -- 61
2019-06-17 06:00:00 13.5 4 Sudoeste 8 Sudoeste 0 -- -- 58
2019-06-17 05:00:00 14.8 4 Sudoeste 5 Sudoeste 0 -- -- 51
2019-06-17 04:00:00 16.2 0 Calma 9 Sudoeste 0 -- -- 47
2019-06-17 03:00:00 17.4 7 Sudoeste 15 Sudoeste 0 -- -- 45
2019-06-17 02:00:00 18.6 13 Sudoeste 19 Sur 0 -- -- 41
2019-06-17 01:00:00 19.6 13 Sur 27 Sur 0 -- -- 40
2019-06-17 00:00:00 20.5 19 Sudoeste 24 Sur 0 -- -- 36
2019-06-16 23:00:00 21.6 17 Sur 22 Sur 0 -- -- 30
2019-06-16 22:00:00 23.6 14 Sudoeste 25 Sudoeste 0 -- -- 26
2019-06-16 21:00:00 26.6 21 Sudoeste 35 Sudoeste 0 -- -- 23
2019-06-16 20:00:00 27.9 26 Sudoeste 39 Sudoeste 0 -- -- 20
2019-06-16 19:00:00 30 27 Sudoeste 37 Sudoeste 0 -- -- 19
2019-06-16 18:00:00 30.8 19 Oeste 33 Sudoeste 0 -- -- 21
2019-06-16 17:00:00 31.9 16 Sudoeste 30 Oeste 0 -- -- 19
2019-06-16 16:00:00 31.2 10 Oeste 26 Sudoeste 0 -- -- 20
2019-06-16 15:00:00 30 11 Oeste 28 Sudoeste 0 -- -- 22
2019-06-16 14:00:00 28.3 4 Nordeste 17 Norte 0 -- -- 27
2019-06-16 13:00:00 27.1 7 Nordeste 12 Oeste 0 -- -- 28
2019-06-16 12:00:00 27.6 5 Sur 14 Sur 0 -- -- 27
2019-06-16 11:00:00 25.8 5 Sudoeste 11 Sudoeste 0 -- -- 29
2019-06-16 10:00:00 21.5 3 Sudoeste 6 Oeste 0 -- -- 37
2019-06-16 09:00:00 16.4 3 Sudoeste 12 Sudoeste 0 -- -- 45
2019-06-16 08:00:00 12.6 9 Sudoeste 14 Sudoeste 0 -- -- 52
2019-06-16 07:00:00 10.7 8 Sudoeste 12 Sudoeste 0 -- -- 56
2019-06-16 06:00:00 11.4 8 Sudoeste 10 Sudoeste 0 -- -- 53
2019-06-16 05:00:00 11.7 9 Sudoeste 10 Sudoeste 0 -- -- 51
2019-06-16 04:00:00 12.7 8 Sudoeste 15 Sudoeste 0 -- -- 49
2019-06-16 03:00:00 13.9 8 Sudoeste 10 Sudoeste 0 -- -- 46
2019-06-16 02:00:00 15.7 5 Sudoeste 8 Sudoeste 0 -- -- 42
2019-06-16 01:00:00 16.9 5 Sudoeste 10 Sudoeste 0 -- -- 39
2019-06-16 00:00:00 18.4 8 Sudoeste 10 Sudoeste 0 -- -- 36
2019-06-15 23:00:00 20.2 8 Sudoeste 11 Sudoeste 0 -- -- 33
2019-06-15 22:00:00 22.8 5 Sudoeste 13 Noroeste 0 -- -- 28
2019-06-15 21:00:00 26.9 3 Noroeste 20 Norte 0 -- -- 23
2019-06-15 20:00:00 26.6 16 Norte 30 Nordeste 0 -- -- 23
2019-06-15 19:00:00 27.3 14 Norte 27 Norte 0 -- -- 25
2019-06-15 18:00:00 27.4 14 Nordeste 25 Nordeste 0 -- -- 26
2019-06-15 17:00:00 27.2 17 Norte 27 Norte 0 -- -- 27
2019-06-15 16:00:00 26.5 13 Norte 22 Nordeste 0 -- -- 29
2019-06-15 15:00:00 25.2 8 Noroeste 24 Norte 0 -- -- 30
2019-06-15 14:00:00 24.1 13 Nordeste 21 Nordeste 0 -- -- 30
2019-06-15 13:00:00 22.4 11 Nordeste 20 Nordeste 0 -- -- 37
2019-06-15 12:00:00 20.6 10 Nordeste 21 Nordeste 0 -- -- 41
2019-06-15 11:00:00 19.2 14 Nordeste 21 Nordeste 0 -- -- 44
2019-06-15 10:00:00 17.7 14 Nordeste 19 Nordeste 0 -- -- 48
2019-06-15 09:00:00 15.2 4 Nordeste 8 Nordeste 0 -- -- 57
2019-06-15 08:00:00 10.1 4 Sudoeste 6 Sudoeste 0 -- -- 72
2019-06-15 07:00:00 9.2 6 Sudoeste 8 Sudoeste 0 -- -- 74
2019-06-15 06:00:00 10.6 0 Calma 7 Norte 0 -- -- 67
2019-06-15 05:00:00 11.6 3 Norte 8 Sur 0 -- -- 65
2019-06-15 04:00:00 12.3 6 Sudoeste 13 Sudoeste 0 -- -- 62
2019-06-15 03:00:00 13 11 Sur 21 Sur 0 -- -- 61
2019-06-15 02:00:00 13.9 18 Sudoeste 29 Sudoeste 0 -- -- 63
2019-06-15 01:00:00 14.8 19 Sudoeste 30 Sudoeste 0 -- -- 60
2019-06-15 00:00:00 15.9 18 Sudoeste 25 Sudoeste 0 -- -- 56
2019-06-14 23:00:00 16.9 15 Sudoeste 25 Sudoeste 0 -- -- 50
2019-06-14 22:00:00 18 13 Sudoeste 22 Sudoeste 0 -- -- 46
2019-06-14 21:00:00 20.7 18 Sudoeste 35 Oeste 0 -- -- 38
2019-06-14 20:00:00 21.8 22 Oeste 39 Sudoeste 0 -- -- 34
2019-06-14 19:00:00 22 25 Oeste 37 Oeste 0 -- -- 33
2019-06-14 18:00:00 23.9 20 Sudoeste 42 Sudoeste 0 -- -- 33
2019-06-14 17:00:00 23 24 Oeste 38 Oeste 0 -- -- 36
2019-06-14 16:00:00 23.1 20 Oeste 38 Oeste 0 -- -- 39
2019-06-14 15:00:00 22.9 21 Oeste 41 Sudoeste 0 -- -- 37
2019-06-14 14:00:00 21.9 24 Sudoeste 42 Sudoeste 0 -- -- 41
2019-06-14 13:00:00 21.4 27 Sudoeste 45 Oeste 0 -- -- 47
2019-06-14 12:00:00 19.8 18 Oeste 31 Oeste 0 -- -- 56
2019-06-14 11:00:00 20.1 15 Nordeste 21 Nordeste 0 -- -- 56
2019-06-14 10:00:00 20.2 5 Sudeste 21 Sudoeste 0 -- -- 57
2019-06-14 09:00:00 18.4 13 Sudoeste 23 Sudoeste 0 -- -- 64
2019-06-14 08:00:00 16.2 10 Sur 17 Sudoeste 0 -- -- 70
2019-06-14 07:00:00 16.5 13 Sudoeste 26 Sudoeste 0 -- -- 67
2019-06-14 06:00:00 17.4 12 Sudoeste 15 Sudoeste 0 -- -- 66
2019-06-14 05:00:00 17.8 11 Sudoeste 20 Sudoeste 0 -- -- 67
2019-06-14 04:00:00 18.1 8 Sur 21 Sudoeste 0 -- -- 64
2019-06-14 03:00:00 18.6 17 Sudoeste 35 Sudoeste 0 -- -- 63
2019-06-14 02:00:00 19.2 19 Sudoeste 34 Sudoeste 0 -- -- 53
2019-06-14 01:00:00 19.4 19 Sudoeste 29 Sudoeste 0 -- -- 52
2019-06-14 00:00:00 20.4 15 Sudoeste 31 Sudoeste 0 -- -- 49
2019-06-13 23:00:00 22 12 Sudoeste 31 Sudoeste 0 -- -- 46
2019-06-13 22:00:00 23.1 17 Oeste 36 Oeste 0 -- -- 46
2019-06-13 21:00:00 25 17 Oeste 32 Oeste 0 -- -- 43
2019-06-13 20:00:00 27.3 16 Oeste 35 Sudoeste 0 -- -- 39
2019-06-13 19:00:00 27.9 21 Sudoeste 32 Sudoeste 0 -- -- 36
2019-06-13 18:00:00 28.6 19 Sudoeste 36 Oeste 0 -- -- 36
2019-06-13 17:00:00 29.7 17 Sudoeste 35 Noroeste 0 -- -- 35
2019-06-13 16:00:00 28.2 10 Oeste 26 Norte 0 -- -- 36
2019-06-13 15:00:00 26.3 10 Norte 20 Noroeste 0 -- -- 42
2019-06-13 14:00:00 26.3 6 Nordeste 19 Sudoeste 0 -- -- 41
2019-06-13 13:00:00 25 5 Sudeste 16 Nordeste 0 -- -- 44
2019-06-13 12:00:00 21.4 10 Nordeste 21 Norte 0 -- -- 54
2019-06-13 11:00:00 19.2 14 Nordeste 25 Nordeste 0 -- -- 59
2019-06-13 10:00:00 18.8 11 Nordeste 16 Nordeste 0 -- -- 61
2019-06-13 09:00:00 17.3 7 Nordeste 13 Nordeste 0 -- -- 64
2019-06-13 08:00:00 14.1 5 Nordeste 7 Norte 0 -- -- 73
2019-06-13 07:00:00 13.2 2 Sudoeste 6 Sudoeste 0 -- -- 75
2019-06-13 06:00:00 13.8 3 Sudoeste 14 Sudoeste 0 -- -- 73
2019-06-13 05:00:00 14.6 12 Sudoeste 14 Sudoeste 0 -- -- 72
2019-06-13 04:00:00 15.6 8 Sudoeste 16 Sur 0 -- -- 68
2019-06-13 03:00:00 16.9 11 Sudoeste 24 Sudoeste 0 -- -- 63
2019-06-13 02:00:00 17.3 15 Sudoeste 21 Sudoeste 0 -- -- 61
2019-06-13 01:00:00 18 17 Sudoeste 24 Sur 0 -- -- 55
2019-06-13 00:00:00 19.2 15 Sur 21 Sudoeste 0 -- -- 50
2019-06-12 23:00:00 20.6 15 Sudoeste 18 Sudoeste 0 -- -- 44
2019-06-12 22:00:00 21.9 10 Sudoeste 23 Sudoeste 0 -- -- 41
2019-06-12 21:00:00 24.6 18 Sudoeste 30 Sudoeste 0 -- -- 36
2019-06-12 20:00:00 26.7 17 Sudoeste 33 Oeste 0 -- -- 35
2019-06-12 19:00:00 27.9 21 Sudoeste 33 Sudoeste 0 -- -- 33
2019-06-12 18:00:00 29.8 7 Sudoeste 22 Sudoeste 0 -- -- 30
2019-06-12 17:00:00 27.5 10 Este 23 Sudoeste 0 -- -- 34
2019-06-12 16:00:00 28.9 9 Sur 22 Sudoeste 0 -- -- 32
2019-06-12 15:00:00 28.4 10 Sudoeste 28 Sudoeste 0 -- -- 31
2019-06-12 14:00:00 25.6 10 Noroeste 22 Noroeste 0 -- -- 36
2019-06-12 13:00:00 24.3 9 Noroeste 22 Nordeste 0 -- -- 39
2019-06-12 12:00:00 24.9 13 Sur 22 Sur 0 -- -- 36
2019-06-12 11:00:00 23 8 Sudoeste 14 Sudoeste 0 -- -- 43
2019-06-12 10:00:00 21.9 5 Sudoeste 13 Sur 0 -- -- 47
2019-06-12 09:00:00 19.2 7 Sur 17 Sur 0 -- -- 55
2019-06-12 08:00:00 15.9 13 Sur 17 Sur 0 -- -- 67
2019-06-12 07:00:00 14.1 14 Sur 22 Sur 0 -- -- 70
2019-06-12 06:00:00 13.1 15 Sudoeste 19 Sur 0 -- -- 72
2019-06-12 05:00:00 13 9 Sudoeste 13 Sudoeste 0 -- -- 62
2019-06-12 04:00:00 14.7 4 Sudoeste 9 Sur 0 -- -- 64
2019-06-12 03:00:00 16 9 Sudoeste 12 Sudoeste 0 -- -- 59
2019-06-12 02:00:00 17.2 5 Sur 10 Sur 0 -- -- 48
2019-06-12 01:00:00 18.9 3 Sudoeste 21 Nordeste 0 -- -- 39
2019-06-12 00:00:00 20.6 13 Norte 36 Noroeste 0 -- -- 36
2019-06-11 23:00:00 22.8 18 Noroeste 33 Noroeste 0 -- -- 23
2019-06-11 22:00:00 23.1 10 Noroeste 20 Noroeste 0 -- -- 28
2019-06-11 21:00:00 25 9 Noroeste 26 Noroeste 0 -- -- 28
2019-06-11 20:00:00 25.9 15 Noroeste 32 Sudoeste 0 -- -- 28
2019-06-11 19:00:00 27.4 17 Sudoeste 36 Oeste 0 -- -- 28
2019-06-11 18:00:00 26.6 13 Oeste 32 Noroeste 0 -- -- 31
2019-06-11 17:00:00 26 15 Noroeste 33 Oeste 0 -- -- 31
2019-06-11 16:00:00 25.5 11 Norte 31 Noroeste 0 -- -- 31
2019-06-11 15:00:00 25.9 18 Sudoeste 31 Sudoeste 0 -- -- 31
2019-06-11 14:00:00 24.8 21 Sudoeste 32 Sudoeste 0 -- -- 32
2019-06-11 13:00:00 24.2 21 Sudoeste 30 Sur 0 -- -- 31
2019-06-11 12:00:00 23.1 19 Sudoeste 29 Sudoeste 0 -- -- 35
2019-06-11 11:00:00 22 6 Oeste 17 Sudoeste 0 -- -- 45
2019-06-11 10:00:00 21 6 Este 14 Este 0 -- -- 45
2019-06-11 09:00:00 16.9 8 Sudoeste 13 Sudoeste 0 -- -- 59
2019-06-11 08:00:00 13.4 10 Sudoeste 13 Sudoeste 0 -- -- 67
2019-06-11 07:00:00 12.6 9 Sudoeste 12 Sur 0 -- -- 69
2019-06-11 06:00:00 13.7 9 Sur 13 Sur 0 -- -- 65
2019-06-11 05:00:00 14.7 12 Sudoeste 21 Sudoeste 0 -- -- 61
2019-06-11 04:00:00 15.1 9 Sudoeste 17 Sudoeste 0 -- -- 55
2019-06-11 03:00:00 15.7 10 Sudoeste 20 Sudoeste 0 -- -- 54
2019-06-11 02:00:00 16.5 13 Sudoeste 29 Sudoeste 0 -- -- 54
2019-06-11 01:00:00 17.6 21 Sudoeste 28 Sudoeste 0 -- -- 52
2019-06-11 00:00:00 18.5 18 Sudoeste 41 Sudoeste 0 -- -- 49
2019-06-10 23:00:00 19.9 28 Sudoeste 42 Sudoeste 0 -- -- 44
2019-06-10 22:00:00 21.6 19 Sudoeste 35 Oeste 0 -- -- 40
2019-06-10 21:00:00 25.2 15 Sudoeste 24 Sudoeste 0 -- -- 28
2019-06-10 20:00:00 26.2 10 Noroeste 29 Noroeste 0 -- -- 28
2019-06-10 19:00:00 26.1 13 Noroeste 30 Noroeste 0 -- -- 27
2019-06-10 18:00:00 26.9 11 Noroeste 27 Noroeste 0 -- -- 26
2019-06-10 17:00:00 27.3 13 Oeste 34 Sudoeste 0 -- -- 19
2019-06-10 16:00:00 26.2 13 Oeste 33 Sudoeste 0 -- -- 26
2019-06-10 15:00:00 25.9 21 Sudoeste 34 Sudoeste 0 -- -- 28
2019-06-10 14:00:00 26 9 Sur 27 Sudoeste 0 -- -- 32
2019-06-10 13:00:00 23.8 10 Nordeste 28 Norte 0 -- -- 35
2019-06-10 12:00:00 23.3 8 Nordeste 19 Nordeste 0 -- -- 36
2019-06-10 11:00:00 22.7 6 Nordeste 18 Nordeste 0 -- -- 37
2019-06-10 10:00:00 20.6 11 Nordeste 18 Nordeste 0 -- -- 45
2019-06-10 09:00:00 16.8 2 Norte 7 Sur 0 -- -- 54
2019-06-10 08:00:00 12.8 6 Sudoeste 9 Sudoeste 0 -- -- 66
2019-06-10 07:00:00 12.3 4 Sudoeste 6 Noroeste 0 -- -- 66
2019-06-10 06:00:00 13.8 0 Calma 7 Sudoeste 0 -- -- 62
2019-06-10 05:00:00 14.6 3 Sur 10 Sur 0 -- -- 60
2019-06-10 04:00:00 15.4 4 Sudeste 9 Sudoeste 0 -- -- 56
2019-06-10 03:00:00 16.3 6 Sudoeste 24 Sudoeste 0 -- -- 52
2019-06-10 02:00:00 17.3 19 Sudoeste 30 Sudoeste 0 -- -- 49
2019-06-10 01:00:00 18.2 23 Sudoeste 37 Sudoeste 0 -- -- 43
2019-06-10 00:00:00 19.1 21 Sudoeste 30 Sur 0 -- -- 38
2019-06-09 23:00:00 20 22 Sudoeste 39 Sudoeste 0 -- -- 35
2019-06-09 22:00:00 21.7 20 Sudoeste 33 Sudoeste 0 -- -- 31
2019-06-09 21:00:00 24.4 15 Sudoeste 36 Sudoeste 0 -- -- 31
2019-06-09 20:00:00 26.2 20 Sudoeste 32 Sudoeste 0 -- -- 31
2019-06-09 19:00:00 27.1 19 Sudoeste 40 Sudoeste 0 -- -- 28
2019-06-09 18:00:00 26.9 20 Sudoeste 37 Sudoeste 0 -- -- 29
2019-06-09 17:00:00 27 21 Sudoeste 39 Oeste 0 -- -- 33
2019-06-09 16:00:00 26.3 23 Oeste 41 Sudoeste 0 -- -- 36
2019-06-09 15:00:00 26.9 21 Sudoeste 40 Oeste 0 -- -- 36
2019-06-09 14:00:00 27.1 13 Sudoeste 25 Sudoeste 0 -- -- 39
2019-06-09 13:00:00 25 8 Nordeste 19 Sudoeste 0 -- -- 45
2019-06-09 12:00:00 24.1 8 Sudoeste 15 Sur 0 -- -- 47
2019-06-09 11:00:00 21 7 Nordeste 14 Este 0 -- -- 59
2019-06-09 10:00:00 20.6 10 Este 14 Este 0 -- -- 62
2019-06-09 09:00:00 17.4 3 Norte 5 Noroeste 0 -- -- 76
2019-06-09 08:00:00 16.5 3 Sudoeste 8 Oeste 0 -- -- 78
2019-06-09 07:00:00 16.4 7 Sur 10 Sur 0 -- -- 78
2019-06-09 06:00:00 16.9 7 Sur 19 Sudoeste 0 -- -- 77
2019-06-09 05:00:00 17.2 11 Sur 21 Sudoeste 0 -- -- 74
2019-06-09 04:00:00 17.8 7 Sudoeste 17 Sudoeste 0 -- -- 69
2019-06-09 03:00:00 18.3 15 Sudoeste 26 Sudoeste 0 -- -- 66
2019-06-09 02:00:00 19 22 Sudoeste 31 Sur 0 -- -- 62
2019-06-09 01:00:00 19.6 21 Sur 26 Sur 0 -- -- 57
2019-06-09 00:00:00 20.6 19 Sudoeste 24 Sudoeste 0 -- -- 53
2019-06-08 23:00:00 21.5 16 Sudoeste 24 Sur 0 -- -- 51
2019-06-08 22:00:00 22.3 9 Sudoeste 28 Sudoeste 0 -- -- 47
2019-06-08 21:00:00 23.6 20 Sudoeste 52 Sudoeste 0 -- -- 43
2019-06-08 20:00:00 25.6 28 Sudoeste 43 Sudoeste 0 -- -- 37
2019-06-08 19:00:00 28 33 Sudoeste 45 Sudoeste 0 -- -- 31
2019-06-08 18:00:00 29.7 25 Sudoeste 37 Sudoeste 0 -- -- 27
2019-06-08 17:00:00 30 23 Sudoeste 37 Sudoeste 0 -- -- 28
2019-06-08 16:00:00 30.6 21 Sudoeste 33 Sudoeste 0 -- -- 27
2019-06-08 15:00:00 30.5 14 Sudoeste 28 Sudoeste 0 -- -- 26
2019-06-08 14:00:00 30.7 10 Sudoeste 24 Sudoeste 0 -- -- 25
2019-06-08 13:00:00 28.7 14 Sudoeste 23 Sudoeste 0 -- -- 27
2019-06-08 12:00:00 26.7 8 Norte 14 Oeste 0 -- -- 30
2019-06-08 11:00:00 26.1 5 Sur 11 Sur 0 -- -- 31
2019-06-08 10:00:00 21.3 5 Sudoeste 9 Sudoeste 0 -- -- 31
2019-06-08 09:00:00 15.3 8 Sudoeste 12 Sudoeste 0 -- -- 39
2019-06-08 08:00:00 10.6 8 Sudoeste 12 Sudoeste 0 -- -- 50
2019-06-08 07:00:00 9.3 9 Sudoeste 10 Sudoeste 0 -- -- 54
2019-06-08 06:00:00 9.9 8 Sudoeste 10 Oeste 0 -- -- 51
2019-06-08 05:00:00 10.6 6 Sudoeste 9 Sudoeste 0 -- -- 50
2019-06-08 04:00:00 11.7 6 Sudoeste 8 Sudoeste 0 -- -- 46
2019-06-08 03:00:00 12.9 5 Sudoeste 9 Sudoeste 0 -- -- 43
2019-06-08 02:00:00 14.6 4 Sudoeste 13 Nordeste 0 -- -- 41
2019-06-08 01:00:00 16.8 8 Nordeste 12 Nordeste 0 -- -- 33
2019-06-08 00:00:00 16.2 3 Sur 13 Sudoeste 0 -- -- 40
2019-06-07 23:00:00 18.3 8 Sudoeste 10 Sudoeste 0 -- -- 34
2019-06-07 22:00:00 20.3 3 Este 14 Noroeste 0 -- -- 30
2019-06-07 21:00:00 23 6 Norte 16 Norte 0 -- -- 27
2019-06-07 20:00:00 24.5 8 Noroeste 21 Noroeste 0 -- -- 28
2019-06-07 19:00:00 24.4 13 Norte 27 Norte 0 -- -- 30
2019-06-07 18:00:00 24.6 12 Norte 27 Noroeste 0 -- -- 33
2019-06-07 17:00:00 24.2 18 Norte 28 Norte 0 -- -- 38
2019-06-07 16:00:00 23.6 13 Nordeste 28 Nordeste 0 -- -- 44
2019-06-07 15:00:00 23.1 10 Nordeste 21 Norte 0 -- -- 47
2019-06-07 14:00:00 23.6 5 Sudeste 22 Oeste 0 -- -- 46
2019-06-07 13:00:00 18.5 6 Norte 29 Nordeste 0 -- -- 65
2019-06-07 12:00:00 15 19 Nordeste 26 Nordeste 0 -- -- 77
2019-06-07 11:00:00 14.9 10 Nordeste 20 Nordeste 0 -- -- 79
2019-06-07 10:00:00 16 4 Sudoeste 18 Sudoeste 0 -- -- 69
2019-06-07 09:00:00 15 10 Sudoeste 18 Sudoeste 0 -- -- 71
2019-06-07 08:00:00 14.4 8 Sudoeste 12 Sudoeste 0 -- -- 72
2019-06-07 07:00:00 13.2 5 Sur 10 Sudoeste 0 -- -- 71
2019-06-07 06:00:00 12.8 7 Sudoeste 14 Sudoeste 0 -- -- 69
2019-06-07 05:00:00 13.6 10 Sudoeste 23 Sur 0 -- -- 64
2019-06-07 04:00:00 14 22 Sudoeste 29 Sudoeste 0 -- -- 61
2019-06-07 03:00:00 13.9 12 Sudeste 23 Sur 0 -- -- 61
2019-06-07 02:00:00 14.4 12 Sur 28 Sudoeste 0 -- -- 58
2019-06-07 01:00:00 15.1 21 Sudoeste 40 Sudoeste 0 -- -- 49
2019-06-07 00:00:00 16 22 Sudoeste 32 Sudoeste 0 -- -- 43
2019-06-06 23:00:00 17.4 23 Sudoeste 38 Sudoeste 0 -- -- 32
2019-06-06 22:00:00 18.9 28 Sudoeste 44 Sudoeste 0 -- -- 28
2019-06-06 21:00:00 22 28 Sudoeste 39 Sudoeste 0 -- -- 30
2019-06-06 20:00:00 25 23 Oeste 39 Oeste 0 -- -- 27
2019-06-06 19:00:00 26 23 Oeste 42 Sudoeste 0 -- -- 25
2019-06-06 18:00:00 26.9 22 Oeste 36 Oeste 0 -- -- 24
2019-06-06 17:00:00 27.5 21 Sudoeste 39 Sudoeste 0 -- -- 22
2019-06-06 16:00:00 27 25 Sudoeste 39 Sudoeste 0 -- -- 23
2019-06-06 15:00:00 26 15 Oeste 34 Oeste 0 -- -- 25
2019-06-06 14:00:00 25.6 16 Sudoeste 28 Sudoeste 0 -- -- 26
2019-06-06 13:00:00 24.5 13 Sudoeste 24 Sur 0 -- -- 29
2019-06-06 12:00:00 21.9 8 Noroeste 17 Sudoeste 0 -- -- 33
2019-06-06 11:00:00 21.4 3 Sur 9 Norte 0 -- -- 40
2019-06-06 10:00:00 17.4 4 Noroeste 6 Norte 0 -- -- 48
2019-06-06 09:00:00 14.9 3 Sudoeste 9 Sudoeste 0 -- -- 57
2019-06-06 08:00:00 11 5 Sudoeste 9 Sudoeste 0 -- -- 66
2019-06-06 07:00:00 11.2 0 Calma 3 Sur 0 -- -- 66
2019-06-06 06:00:00 12.2 3 Sur 6 Sur 0 -- -- 65
2019-06-06 05:00:00 12.8 5 Sudoeste 14 Sur 0 -- -- 64
2019-06-06 04:00:00 13.2 11 Sudoeste 13 Sudoeste 0 -- -- 62
2019-06-06 03:00:00 13.6 8 Sur 12 Sudoeste 0 -- -- 58
2019-06-06 02:00:00 14.4 7 Oeste 15 Sudoeste 0 -- -- 49
2019-06-06 01:00:00 14.5 10 Sudoeste 13 Sudoeste 0 -- -- 41
2019-06-06 00:00:00 15.7 4 Sudoeste 9 Sur 0 -- -- 37
2019-06-05 23:00:00 16.3 4 Sudoeste 10 Sur 0 -- -- 35
2019-06-05 22:00:00 18.4 3 Sudoeste 17 Noroeste 0 -- -- 31
2019-06-05 21:00:00 20.5 12 Noroeste 22 Oeste 0 -- -- 28
2019-06-05 20:00:00 22 12 Noroeste 27 Oeste 0 -- -- 28
2019-06-05 19:00:00 22.1 9 Noroeste 35 Noroeste 0 -- -- 30
2019-06-05 18:00:00 23 10 Oeste 32 Oeste 0 -- -- 30
2019-06-05 17:00:00 22.1 10 Noroeste 30 Oeste 0 -- -- 32
2019-06-05 16:00:00 21 13 Noroeste 31 Noroeste 0 -- -- 33
2019-06-05 15:00:00 21.1 11 Noroeste 28 Noroeste 0 -- -- 34
2019-06-05 14:00:00 20.1 9 Noroeste 35 Norte 0 -- -- 36
2019-06-05 13:00:00 18.6 14 Noroeste 27 Noroeste 0 -- -- 38
2019-06-05 12:00:00 17.8 12 Noroeste 27 Noroeste 0 -- -- 37
2019-06-05 11:00:00 17.5 13 Noroeste 23 Nordeste 0 -- -- 36
2019-06-05 10:00:00 16.4 6 Norte 30 Oeste 0 -- -- 44
2019-06-05 09:00:00 15.4 5 Oeste 26 Noroeste 0 -- -- 45
2019-06-05 08:00:00 13.8 3 Sudoeste 14 Sudoeste 0 -- -- 49
2019-06-05 07:00:00 14.5 5 Oeste 27 Noroeste 0 -- -- 51
2019-06-05 06:00:00 15.9 9 Oeste 35 Sudoeste 0 -- -- 61
2019-06-05 05:00:00 17 24 Sudoeste 37 Sudoeste 0 -- -- 67
2019-06-05 04:00:00 17.6 19 Sudoeste 32 Sudoeste 0 -- -- 69
2019-06-05 03:00:00 18.1 18 Sudoeste 34 Sudoeste 0 -- -- 71
2019-06-05 02:00:00 18.5 19 Sudoeste 39 Sudoeste 0 -- -- 69
2019-06-05 01:00:00 18.9 26 Sudoeste 44 Sudoeste 0 -- -- 66
2019-06-05 00:00:00 20.2 24 Sudoeste 41 Sudoeste 0 -- -- 59
2019-06-04 23:00:00 21.6 26 Sudoeste 36 Sudoeste 0 -- -- 55
2019-06-04 22:00:00 23 19 Sudoeste 37 Sudoeste 0 -- -- 43
2019-06-04 21:00:00 25.1 25 Sudoeste 46 Oeste 0 -- -- 40
2019-06-04 20:00:00 27.9 28 Oeste 45 Sudoeste 0 -- -- 36
2019-06-04 19:00:00 28.7 23 Oeste 42 Oeste 0 -- -- 33
2019-06-04 18:00:00 30.1 23 Sudoeste 43 Sudoeste 0 -- -- 30
2019-06-04 17:00:00 30.3 24 Oeste 42 Oeste 0 -- -- 28
2019-06-04 16:00:00 30.1 24 Oeste 40 Sudoeste 0 -- -- 28
2019-06-04 15:00:00 30.3 22 Oeste 40 Oeste 0 -- -- 24
2019-06-04 14:00:00 29.5 26 Sudoeste 41 Sudoeste 0 -- -- 21
2019-06-04 13:00:00 30 21 Sur 32 Sur 0 -- -- 22
2019-06-04 12:00:00 28.5 17 Sudoeste 27 Sudoeste 0 -- -- 22
2019-06-04 11:00:00 26.5 18 Sudoeste 26 Sudoeste 0 -- -- 27
2019-06-04 10:00:00 24.3 10 Sudoeste 14 Sudoeste 0 -- -- 29
2019-06-04 09:00:00 19.2 3 Sudoeste 15 Sudoeste 0 -- -- 39
2019-06-04 08:00:00 14.2 12 Sudoeste 17 Sudoeste 0 -- -- 47
2019-06-04 07:00:00 13.3 11 Sudoeste 18 Sudoeste 0 -- -- 50
2019-06-04 06:00:00 13.9 13 Sudoeste 16 Sudoeste 0 -- -- 52
2019-06-04 05:00:00 16.7 6 Sudoeste 6 Sudoeste 0 -- -- 44
2019-06-04 04:00:00 19.2 5 Nordeste 8 Nordeste 0 -- -- 38
2019-06-04 03:00:00 20.5 5 Sudoeste 13 Sur 0 -- -- 35
2019-06-04 02:00:00 21.7 11 Sur 19 Sudoeste 0 -- -- 34
2019-06-04 01:00:00 22.4 12 Sur 21 Sur 0 -- -- 30
2019-06-04 00:00:00 23.5 15 Sur 19 Sur 0 -- -- 27
2019-06-03 23:00:00 24.6 7 Sudoeste 17 Sur 0 -- -- 24
2019-06-03 22:00:00 26.6 14 Sur 20 Sudoeste 0 -- -- 21
2019-06-03 21:00:00 30.3 15 Sudoeste 33 Sudoeste 0 -- -- 17
2019-06-03 20:00:00 32.5 24 Sudoeste 36 Sudoeste 0 -- -- 17
2019-06-03 19:00:00 33.5 23 Sudoeste 34 Sudoeste 0 -- -- 17
2019-06-03 18:00:00 35 21 Sudoeste 34 Sudoeste 0 -- -- 18
2019-06-03 17:00:00 35.4 16 Oeste 31 Sudoeste 0 -- -- 18
2019-06-03 16:00:00 35.3 17 Sudoeste 28 Sudoeste 0 -- -- 19
2019-06-03 15:00:00 33.6 8 Nordeste 21 Norte 0 -- -- 19
2019-06-03 14:00:00 32.5 12 Nordeste 25 Nordeste 0 -- -- 20
2019-06-03 13:00:00 31 13 Nordeste 21 Nordeste 0 -- -- 21
2019-06-03 12:00:00 30.1 8 Norte 15 Este 0 -- -- 23
2019-06-03 11:00:00 27.2 5 Norte 12 Norte 0 -- -- 24
2019-06-03 10:00:00 25 3 Sur 10 Sudoeste 0 -- -- 27
2019-06-03 09:00:00 19.1 9 Sudoeste 18 Sudoeste 0 -- -- 38
2019-06-03 08:00:00 15 12 Sudoeste 14 Sudoeste 0 -- -- 46
2019-06-03 07:00:00 14.8 8 Sudoeste 11 Sudoeste 0 -- -- 44
2019-06-03 06:00:00 16.3 10 Sudoeste 13 Sudoeste 0 -- -- 41
2019-06-03 05:00:00 17.4 6 Sur 13 Sudoeste 0 -- -- 37
2019-06-03 04:00:00 16.8 7 Sudoeste 9 Sudoeste 0 -- -- 39
2019-06-03 03:00:00 18.4 6 Sudoeste 12 Sudoeste 0 -- -- 35
2019-06-03 02:00:00 19 12 Sudoeste 17 Sudoeste 0 -- -- 36
2019-06-03 01:00:00 20.6 15 Sudoeste 18 Sudoeste 0 -- -- 33
2019-06-03 00:00:00 22.7 17 Sur 23 Sudoeste 0 -- -- 28
2019-06-02 23:00:00 24.5 21 Sudoeste 31 Sudoeste 0 -- -- 27
2019-06-02 22:00:00 26.1 19 Sur 33 Sudoeste 0 -- -- 26
2019-06-02 21:00:00 28.7 25 Sudoeste 33 Sudoeste 0 -- -- 24
2019-06-02 20:00:00 31.4 27 Sudoeste 37 Sudoeste 0 -- -- 22
2019-06-02 19:00:00 34.1 6 Norte 17 Norte 0 -- -- 19
2019-06-02 18:00:00 33.6 10 Norte 20 Este 0 -- -- 20
2019-06-02 17:00:00 34 7 Sur 20 Nordeste 0 -- -- 20
2019-06-02 16:00:00 32.4 10 Nordeste 24 Nordeste 0 -- -- 20
2019-06-02 15:00:00 31.4 13 Nordeste 25 Nordeste 0 -- -- 21
2019-06-02 14:00:00 30.9 14 Nordeste 25 Nordeste 0 -- -- 21
2019-06-02 13:00:00 29.3 14 Nordeste 21 Nordeste 0 -- -- 25
2019-06-02 12:00:00 27.4 12 Nordeste 21 Nordeste 0 -- -- 29
2019-06-02 11:00:00 25.4 13 Nordeste 17 Nordeste 0 -- -- 32
2019-06-02 10:00:00 23.6 3 Nordeste 6 Norte 0 -- -- 36
2019-06-02 09:00:00 18.1 3 Sudoeste 8 Sudoeste 0 -- -- 46
2019-06-02 08:00:00 14.1 2 Sudoeste 9 Sudoeste 0 -- -- 57
2019-06-02 07:00:00 13.6 5 Sudoeste 7 Sudoeste 0 -- -- 55
2019-06-02 06:00:00 14.3 3 Nordeste 9 Sudoeste 0 -- -- 54
2019-06-02 05:00:00 14.9 8 Sudoeste 14 Sudoeste 0 -- -- 52
2019-06-02 04:00:00 15.6 7 Sudoeste 12 Sudoeste 0 -- -- 50
2019-06-02 03:00:00 16.8 10 Sudoeste 13 Sudoeste 0 -- -- 46
2019-06-02 02:00:00 17.3 12 Sudoeste 16 Sudoeste 0 -- -- 46
2019-06-02 01:00:00 19 11 Sudoeste 12 Sudoeste 0 -- -- 41
2019-06-02 00:00:00 20.5 7 Sudoeste 20 Sudoeste 0 -- -- 37
2019-06-01 23:00:00 22.5 17 Sudoeste 22 Sudoeste 0 -- -- 33
2019-06-01 22:00:00 23.9 14 Sudoeste 23 Sudoeste 0 -- -- 33
2019-06-01 21:00:00 27 15 Sudoeste 44 Sur 0 -- -- 29
2019-06-01 20:00:00 29.4 27 Sudoeste 38 Sudoeste 0 -- -- 27
2019-06-01 19:00:00 32 23 Sudoeste 43 Sudoeste 0 -- -- 24
2019-06-01 18:00:00 34.4 11 Sudoeste 27 Oeste 0 -- -- 17
2019-06-01 17:00:00 33.6 8 Noroeste 30 Nordeste 0 -- -- 20
2019-06-01 16:00:00 32.4 5 Norte 23 Noroeste 0 -- -- 21
2019-06-01 15:00:00 31.4 4 Noroeste 30 Norte 0 -- -- 23
2019-06-01 14:00:00 30.4 13 Norte 23 Norte 0 -- -- 23
2019-06-01 13:00:00 29.2 12 Norte 24 Nordeste 0 -- -- 25
2019-06-01 12:00:00 28.1 13 Norte 22 Nordeste 0 -- -- 27
2019-06-01 11:00:00 26 9 Norte 16 Norte 0 -- -- 31
2019-06-01 10:00:00 23.9 4 Norte 7 Norte 0 -- -- 33
2019-06-01 09:00:00 18.9 3 Sudoeste 10 Sudoeste 0 -- -- 42
2019-06-01 08:00:00 14.4 5 Sudoeste 10 Sudoeste 0 -- -- 50
2019-06-01 07:00:00 13.5 5 Sudoeste 10 Sudoeste 0 -- -- 53
2019-06-01 06:00:00 14.3 7 Sudoeste 12 Sudoeste 0 -- -- 52
2019-06-01 05:00:00 15.7 6 Sudoeste 19 Sudoeste 0 -- -- 50
2019-06-01 04:00:00 16.9 11 Sudoeste 16 Oeste 0 -- -- 47
2019-06-01 03:00:00 18.6 13 Sudoeste 19 Oeste 0 -- -- 44
2019-06-01 02:00:00 21.6 3 Sur 13 Nordeste 0 -- -- 35
2019-06-01 01:00:00 22.7 6 Sudoeste 15 Este 0 -- -- 34
2019-06-01 00:00:00 22.3 8 Sudoeste 14 Oeste 0 -- -- 36
2019-05-31 23:00:00 23.1 7 Sudoeste 19 Sudoeste 0 -- -- 36
2019-05-31 22:00:00 24.5 14 Sur 19 Sur 0 -- -- 31
2019-05-31 21:00:00 27.4 16 Sudoeste 36 Sudoeste 0 -- -- 28
2019-05-31 20:00:00 30.2 24 Sudoeste 38 Sudoeste 0 -- -- 26
2019-05-31 19:00:00 32.2 23 Sudoeste 33 Sudoeste 0 -- -- 25
2019-05-31 18:00:00 32.7 11 Nordeste 30 Norte 0 -- -- 18
2019-05-31 17:00:00 32.3 14 Norte 26 Norte 0 -- -- 19
2019-05-31 16:00:00 32.5 9 Este 23 Nordeste 0 -- -- 18
2019-05-31 15:00:00 30.8 13 Noroeste 26 Este 0 -- -- 20
2019-05-31 14:00:00 30.9 11 Nordeste 28 Este 0 -- -- 20
2019-05-31 13:00:00 29.4 8 Nordeste 23 Nordeste 0 -- -- 21
2019-05-31 12:00:00 28.2 12 Nordeste 28 Este 0 -- -- 24
2019-05-31 11:00:00 27.3 9 Nordeste 25 Sudeste 0 -- -- 25
2019-05-31 10:00:00 25.1 12 Sudeste 21 Este 0 -- -- 27
2019-05-31 09:00:00 21.5 7 Sudoeste 16 Sudeste 0 -- -- 35
2019-05-31 08:00:00 18.5 12 Sur 19 Sudeste 0 -- -- 39
2019-05-31 07:00:00 18.7 13 Sudeste 21 Sudeste 0 -- -- 39
2019-05-31 06:00:00 17.8 10 Sudeste 18 Sudeste 0 -- -- 41
2019-05-31 05:00:00 16.2 7 Sur 17 Sudeste 0 -- -- 52
2019-05-31 04:00:00 17.6 5 Sudoeste 9 Sudoeste 0 -- -- 46
2019-05-31 03:00:00 18.4 5 Sur 14 Sur 0 -- -- 46
2019-05-31 02:00:00 19.7 6 Sudoeste 11 Oeste 0 -- -- 42
2019-05-31 01:00:00 20 6 Sur 14 Oeste 0 -- -- 45
2019-05-31 00:00:00 20.2 4 Oeste 18 Sudoeste 0 -- -- 46
2019-05-30 23:00:00 20 15 Sudoeste 19 Sudoeste 0 -- -- 48
2019-05-30 22:00:00 22.1 16 Sudoeste 24 Sudoeste 0 -- -- 42
2019-05-30 21:00:00 24.6 19 Sudoeste 39 Sudoeste 0 -- -- 37
2019-05-30 20:00:00 27.6 26 Sudoeste 35 Sudoeste 0 -- -- 33
2019-05-30 19:00:00 31.3 19 Sudoeste 31 Sudoeste 0 -- -- 29
2019-05-30 18:00:00 31.5 8 Noroeste 25 Nordeste 0 -- -- 21
2019-05-30 17:00:00 30.8 14 Norte 26 Norte 0 -- -- 23
2019-05-30 16:00:00 30.1 12 Nordeste 31 Norte 0 -- -- 25
2019-05-30 15:00:00 29.1 9 Nordeste 27 Nordeste 0 -- -- 28
2019-05-30 14:00:00 28.7 14 Norte 26 Norte 0 -- -- 28
2019-05-30 13:00:00 28 8 Nordeste 24 Nordeste 0 -- -- 28
2019-05-30 12:00:00 26.3 7 Noroeste 18 Oeste 0 -- -- 32
2019-05-30 11:00:00 25.6 5 Sudoeste 14 Sudoeste 0 -- -- 40
2019-05-30 10:00:00 23.8 6 Sudeste 13 Este 0 -- -- 43
2019-05-30 09:00:00 20.3 5 Sudoeste 12 Oeste 0 -- -- 52
2019-05-30 08:00:00 15.7 4 Sudoeste 8 Sudoeste 0 -- -- 55
2019-05-30 07:00:00 13.7 5 Sudoeste 11 Sudoeste 0 -- -- 58
2019-05-30 06:00:00 14 9 Sudoeste 13 Sudoeste 0 -- -- 57
2019-05-30 05:00:00 15.4 8 Sudoeste 11 Sudoeste 0 -- -- 48
2019-05-30 04:00:00 16 5 Oeste 10 Sudoeste 0 -- -- 44
2019-05-30 03:00:00 18.1 6 Sudoeste 9 Sudoeste 0 -- -- 36
2019-05-30 02:00:00 19.3 3 Oeste 13 Nordeste 0 -- -- 33
2019-05-30 01:00:00 21.4 9 Nordeste 13 Nordeste 0 -- -- 29
2019-05-30 00:00:00 21.8 9 Nordeste 22 Norte 0 -- -- 28
2019-05-29 23:00:00 23.3 12 Nordeste 16 Nordeste 0 -- -- 25
2019-05-29 22:00:00 24.6 10 Nordeste 30 Norte 0 -- -- 24
2019-05-29 21:00:00 26.8 20 Norte 40 Norte 0 -- -- 22
2019-05-29 20:00:00 28.4 21 Norte 33 Norte 0 -- -- 21
2019-05-29 19:00:00 29.3 21 Norte 38 Norte 0 -- -- 21
2019-05-29 18:00:00 29.5 19 Nordeste 36 Nordeste 0 -- -- 21
2019-05-29 17:00:00 29.8 18 Norte 32 Norte 0 -- -- 21
2019-05-29 16:00:00 29.3 13 Norte 33 Norte 0 -- -- 22
2019-05-29 15:00:00 29.1 14 Norte 32 Nordeste 0 -- -- 24
2019-05-29 14:00:00 28.9 14 Norte 28 Norte 0 -- -- 25
2019-05-29 13:00:00 28.1 11 Norte 18 Nordeste 0 -- -- 26
2019-05-29 12:00:00 26.9 7 Norte 20 Norte 0 -- -- 26
2019-05-29 11:00:00 25.5 9 Nordeste 17 Nordeste 0 -- -- 29
2019-05-29 10:00:00 24 7 Nordeste 12 Nordeste 0 -- -- 32
2019-05-29 09:00:00 20.5 3 Sudoeste 7 Sudoeste 0 -- -- 38
2019-05-29 08:00:00 17.6 3 Sudoeste 13 Nordeste 0 -- -- 40
2019-05-29 07:00:00 17.9 7 Nordeste 15 Nordeste 0 -- -- 39
2019-05-29 06:00:00 19.1 10 Nordeste 18 Nordeste 0 -- -- 36
2019-05-29 05:00:00 20.3 10 Nordeste 25 Norte 0 -- -- 31
2019-05-29 04:00:00 21.4 14 Nordeste 30 Norte 0 -- -- 29
2019-05-29 03:00:00 21.9 7 Nordeste 16 Nordeste 0 -- -- 33
2019-05-29 02:00:00 23.5 7 Norte 13 Norte 0 -- -- 33
2019-05-29 01:00:00 25 6 Norte 30 Noroeste 0 -- -- 33
2019-05-29 00:00:00 25.2 12 Norte 31 Norte 0 -- -- 38
2019-05-28 23:00:00 25.8 12 Sudoeste 17 Sudoeste 0 -- -- 35
2019-05-28 22:00:00 28 6 Sudoeste 14 Noroeste 0 -- -- 31
2019-05-28 21:00:00 30.5 4 Noroeste 19 Norte 0 -- -- 26
2019-05-28 20:00:00 31.6 11 Noroeste 21 Norte 0 -- -- 25
2019-05-28 19:00:00 32.5 12 Oeste 24 Sudoeste 0 -- -- 24
2019-05-28 18:00:00 33 13 Oeste 32 Noroeste 0 -- -- 23
2019-05-28 17:00:00 32.4 11 Norte 32 Noroeste 0 -- -- 25
2019-05-28 16:00:00 31.5 17 Norte 30 Oeste 0 -- -- 28
2019-05-28 15:00:00 31.7 15 Norte 26 Norte 0 -- -- 29
2019-05-28 14:00:00 30.8 15 Nordeste 26 Nordeste 0 -- -- 31
2019-05-28 13:00:00 30.3 13 Nordeste 22 Nordeste 0 -- -- 32
2019-05-28 12:00:00 28.9 12 Nordeste 19 Nordeste 0 -- -- 35
2019-05-28 11:00:00 26.4 7 Norte 13 Norte 0 -- -- 39
2019-05-28 10:00:00 25.1 4 Norte 8 Sudoeste 0 -- -- 39
2019-05-28 09:00:00 20.4 5 Sudoeste 12 Sudoeste 0 -- -- 51
2019-05-28 08:00:00 17.2 10 Sudoeste 14 Sudoeste 0 -- -- 57
2019-05-28 07:00:00 17.2 13 Sudoeste 14 Sudoeste 0 -- -- 55
2019-05-28 06:00:00 18.7 12 Sudoeste 14 Sur 0 -- -- 49
2019-05-28 05:00:00 19.9 10 Sudoeste 13 Sur 0 -- -- 45
2019-05-28 04:00:00 20.9 8 Sudoeste 16 Sudoeste 0 -- -- 42
2019-05-28 03:00:00 22.5 14 Sudoeste 28 Sur 0 -- -- 38
2019-05-28 02:00:00 22.6 19 Sur 33 Sudoeste 0 -- -- 37
2019-05-28 01:00:00 23.7 25 Sudoeste 48 Sudoeste 0 -- -- 36
2019-05-28 00:00:00 25 29 Sudoeste 43 Sudoeste 0 -- -- 35
2019-05-27 23:00:00 26.3 25 Sudoeste 36 Oeste 0 -- -- 34
2019-05-27 22:00:00 26.1 8 Sur 10 Sudoeste 0 -- -- 31
2019-05-27 21:00:00 29.4 8 Sudoeste 21 Oeste 0 -- -- 27
2019-05-27 20:00:00 31.7 16 Sudoeste 22 Oeste 0 -- -- 24
2019-05-27 19:00:00 32 9 Noroeste 35 Sudoeste 0 -- -- 23
2019-05-27 18:00:00 31.1 11 Oeste 26 Noroeste 0 -- -- 24
2019-05-27 17:00:00 30.9 17 Noroeste 39 Noroeste 0 -- -- 24
2019-05-27 16:00:00 30.2 12 Norte 24 Noroeste 0 -- -- 24
2019-05-27 15:00:00 29.6 18 Norte 29 Norte 0 -- -- 26
2019-05-27 14:00:00 29.3 14 Nordeste 26 Nordeste 0 -- -- 26
2019-05-27 13:00:00 28.5 10 Norte 20 Norte 0 -- -- 25
2019-05-27 12:00:00 27.2 11 Nordeste 19 Nordeste 0 -- -- 28
2019-05-27 11:00:00 24.5 9 Norte 13 Norte 0 -- -- 33
2019-05-27 10:00:00 22.2 4 Norte 7 Norte 0 -- -- 41
2019-05-27 09:00:00 18.2 2 Sudoeste 17 Sudoeste 0 -- -- 50
2019-05-27 08:00:00 13.4 12 Sudoeste 15 Sudoeste 0 -- -- 62
2019-05-27 07:00:00 12.4 14 Sudoeste 16 Sudoeste 0 -- -- 65
2019-05-27 06:00:00 14.6 5 Sudoeste 8 Sudoeste 0 -- -- 54
2019-05-27 05:00:00 15.5 4 Noroeste 12 Sur 0 -- -- 50
2019-05-27 04:00:00 17 9 Sur 15 Sudoeste 0 -- -- 53
2019-05-27 03:00:00 17.5 12 Sudoeste 19 Sudoeste 0 -- -- 53
2019-05-27 02:00:00 16.7 11 Sur 24 Sudoeste 0 -- -- 44
2019-05-27 01:00:00 16.8 9 Sudoeste 11 Sudoeste 0 -- -- 43
2019-05-27 00:00:00 17.9 8 Sudoeste 11 Sudoeste 0 -- -- 41
2019-05-26 23:00:00 20.3 8 Sudoeste 10 Sudoeste 0 -- -- 37
2019-05-26 22:00:00 23.7 3 Norte 12 Norte 0 -- -- 26
2019-05-26 21:00:00 25.6 9 Norte 22 Norte 0 -- -- 25
2019-05-26 20:00:00 27.4 14 Nordeste 24 Norte 0 -- -- 26
2019-05-26 19:00:00 27.8 13 Norte 27 Norte 0 -- -- 26
2019-05-26 18:00:00 27.6 14 Norte 32 Norte 0 -- -- 26
2019-05-26 17:00:00 27.4 17 Norte 37 Nordeste 0 -- -- 27
2019-05-26 16:00:00 27.3 10 Norte 25 Norte 0 -- -- 31
2019-05-26 15:00:00 26.1 12 Norte 33 Norte 0 -- -- 32
2019-05-26 14:00:00 26 21 Norte 36 Norte 0 -- -- 32
2019-05-26 13:00:00 26 10 Sudeste 18 Nordeste 0 -- -- 34
2019-05-26 12:00:00 24.5 11 Nordeste 17 Nordeste 0 -- -- 36
2019-05-26 11:00:00 23 7 Nordeste 17 Nordeste 0 -- -- 42
2019-05-26 10:00:00 21.4 8 Nordeste 14 Nordeste 0 -- -- 47
2019-05-26 09:00:00 17.6 4 Sudoeste 12 Sudoeste 0 -- -- 58
2019-05-26 08:00:00 13.2 10 Sudoeste 14 Sudoeste 0 -- -- 70
2019-05-26 07:00:00 12.5 10 Sudoeste 12 Sudoeste 0 -- -- 73
2019-05-26 06:00:00 13.9 5 Sudoeste 12 Oeste 0 -- -- 67
2019-05-26 05:00:00 15.2 9 Sur 18 Sur 0 -- -- 63
2019-05-26 04:00:00 16.1 13 Sudoeste 21 Sudoeste 0 -- -- 59
2019-05-26 03:00:00 16.1 13 Sudoeste 26 Sudoeste 0 -- -- 59
2019-05-26 02:00:00 16.2 10 Sudoeste 12 Sudoeste 0 -- -- 52
2019-05-26 01:00:00 17.6 6 Sudoeste 12 Sudoeste 0 -- -- 50
2019-05-26 00:00:00 17.8 12 Sudoeste 15 Sudoeste 0 -- -- 45